Dunholme, United Kingdom
Current Conditions -  °F | °C
As of 2:50 AM on Saturday 20 Dec 2014 (Local Time) from EGXP Reporting Station
Broken Clouds Broken Clouds  
Wind Chill: 37°   Ceiling: 2600
Heat Index: 45°   Visibility: 6mi
Dew Point: 37°   Wind: 18mph
Humidity: 76%   Direction: 250°WSW
Pressure: 30.03"   Gusts: NA
Location:  53.3°N, 0.47°W
Report Text: EGXP 200250Z AUTO 25016KT 9999 // BKN026/// 07/03 Q1017
Loading
Personal Weather Stations






























Interactive Weather Map New forecast layout! Learn more

10-Day Weather Forecast

Advertisements
Track Severe Weather on mobile